sensor_id;sensor_type;location;lat;lon;timestamp;temperature;humidity
36916;DHT22;22836;52.268;9.008;2022-07-23T00:01:38;18.60;57.20
36916;DHT22;22836;52.268;9.008;2022-07-23T00:05:41;18.60;57.30
36916;DHT22;22836;52.268;9.008;2022-07-23T00:09:43;18.50;57.30
36916;DHT22;22836;52.268;9.008;2022-07-23T00:13:45;18.50;57.30
36916;DHT22;22836;52.268;9.008;2022-07-23T00:17:46;18.40;57.30
36916;DHT22;22836;52.268;9.008;2022-07-23T00:21:48;18.40;57.50
36916;DHT22;22836;52.268;9.008;2022-07-23T00:25:51;18.30;57.50
36916;DHT22;22836;52.268;9.008;2022-07-23T00:29:53;18.30;57.50
36916;DHT22;22836;52.268;9.008;2022-07-23T00:33:55;18.20;57.50
36916;DHT22;22836;52.268;9.008;2022-07-23T00:37:58;18.20;57.60
36916;DHT22;22836;52.268;9.008;2022-07-23T00:42:00;18.20;57.70
36916;DHT22;22836;52.268;9.008;2022-07-23T00:46:02;18.10;57.60
36916;DHT22;22836;52.268;9.008;2022-07-23T00:50:08;18.20;57.80
36916;DHT22;22836;52.268;9.008;2022-07-23T00:54:10;18.20;57.80
36916;DHT22;22836;52.268;9.008;2022-07-23T00:58:12;18.20;58.40
36916;DHT22;22836;52.268;9.008;2022-07-23T01:02:14;18.20;57.60
36916;DHT22;22836;52.268;9.008;2022-07-23T01:06:16;18.20;57.60
36916;DHT22;22836;52.268;9.008;2022-07-23T01:10:18;18.20;57.70
36916;DHT22;22836;52.268;9.008;2022-07-23T01:14:22;18.20;57.70
36916;DHT22;22836;52.268;9.008;2022-07-23T01:18:23;18.30;57.70
36916;DHT22;22836;52.268;9.008;2022-07-23T01:22:29;18.30;57.60
36916;DHT22;22836;52.268;9.008;2022-07-23T01:26:31;18.40;58.00
36916;DHT22;22836;52.268;9.008;2022-07-23T01:30:33;18.40;57.70
36916;DHT22;22836;52.268;9.008;2022-07-23T01:34:38;18.40;57.70
36916;DHT22;22836;52.268;9.008;2022-07-23T01:38:42;18.40;57.60
36916;DHT22;22836;52.268;9.008;2022-07-23T01:42:44;18.40;57.70
36916;DHT22;22836;52.268;9.008;2022-07-23T01:46:48;18.40;57.60
36916;DHT22;22836;52.268;9.008;2022-07-23T01:50:51;18.40;57.70
36916;DHT22;22836;52.268;9.008;2022-07-23T01:54:52;18.40;57.70
36916;DHT22;22836;52.268;9.008;2022-07-23T01:58:54;18.40;58.20
36916;DHT22;22836;52.268;9.008;2022-07-23T02:02:57;18.50;57.80
36916;DHT22;22836;52.268;9.008;2022-07-23T02:06:58;18.50;57.80
36916;DHT22;22836;52.268;9.008;2022-07-23T02:11:00;18.50;57.80
36916;DHT22;22836;52.268;9.008;2022-07-23T02:15:02;18.60;57.80
36916;DHT22;22836;52.268;9.008;2022-07-23T02:19:06;18.60;57.80
36916;DHT22;22836;52.268;9.008;2022-07-23T02:23:08;18.70;59.20
36916;DHT22;22836;52.268;9.008;2022-07-23T02:27:10;18.70;57.60
36916;DHT22;22836;52.268;9.008;2022-07-23T02:31:13;18.80;57.70
36916;DHT22;22836;52.268;9.008;2022-07-23T02:35:16;18.80;57.70
36916;DHT22;22836;52.268;9.008;2022-07-23T02:39:18;18.80;57.80
36916;DHT22;22836;52.268;9.008;2022-07-23T02:43:20;18.90;57.80
36916;DHT22;22836;52.268;9.008;2022-07-23T02:47:22;18.80;57.80
36916;DHT22;22836;52.268;9.008;2022-07-23T02:51:23;18.90;58.00
36916;DHT22;22836;52.268;9.008;2022-07-23T02:55:26;18.90;58.00
36916;DHT22;22836;52.268;9.008;2022-07-23T02:59:28;18.90;58.10
36916;DHT22;22836;52.268;9.008;2022-07-23T03:03:29;18.80;58.10
36916;DHT22;22836;52.268;9.008;2022-07-23T03:07:34;18.80;58.20
36916;DHT22;22836;52.268;9.008;2022-07-23T03:11:39;18.80;58.40
36916;DHT22;22836;52.268;9.008;2022-07-23T03:15:41;18.70;58.20
36916;DHT22;22836;52.268;9.008;2022-07-23T03:19:44;18.60;58.30
36916;DHT22;22836;52.268;9.008;2022-07-23T03:23:46;18.60;59.40
36916;DHT22;22836;52.268;9.008;2022-07-23T03:27:48;18.50;58.40
36916;DHT22;22836;52.268;9.008;2022-07-23T03:31:50;18.50;58.60
36916;DHT22;22836;52.268;9.008;2022-07-23T03:35:52;18.50;58.80
36916;DHT22;22836;52.268;9.008;2022-07-23T03:39:53;18.50;58.90
36916;DHT22;22836;52.268;9.008;2022-07-23T03:43:56;18.50;58.90
36916;DHT22;22836;52.268;9.008;2022-07-23T03:47:58;18.50;58.90
36916;DHT22;22836;52.268;9.008;2022-07-23T03:52:00;18.50;58.90
36916;DHT22;22836;52.268;9.008;2022-07-23T03:56:06;18.50;59.00
36916;DHT22;22836;52.268;9.008;2022-07-23T04:00:11;18.50;59.30
36916;DHT22;22836;52.268;9.008;2022-07-23T04:04:16;18.50;59.40
36916;DHT22;22836;52.268;9.008;2022-07-23T04:08:18;18.50;59.40
36916;DHT22;22836;52.268;9.008;2022-07-23T04:12:23;18.60;59.30
36916;DHT22;22836;52.268;9.008;2022-07-23T04:16:25;18.60;59.20
36916;DHT22;22836;52.268;9.008;2022-07-23T04:20:27;18.60;59.20
36916;DHT22;22836;52.268;9.008;2022-07-23T04:24:29;18.60;59.20
36916;DHT22;22836;52.268;9.008;2022-07-23T04:28:32;18.70;59.30
36916;DHT22;22836;52.268;9.008;2022-07-23T04:32:34;18.70;59.30
36916;DHT22;22836;52.268;9.008;2022-07-23T04:36:35;18.70;59.30
36916;DHT22;22836;52.268;9.008;2022-07-23T04:40:37;18.80;59.40
36916;DHT22;22836;52.268;9.008;2022-07-23T04:44:39;18.80;59.50
36916;DHT22;22836;52.268;9.008;2022-07-23T04:48:41;18.90;59.60
36916;DHT22;22836;52.268;9.008;2022-07-23T04:52:44;18.90;59.50
36916;DHT22;22836;52.268;9.008;2022-07-23T04:56:46;18.90;59.50
36916;DHT22;22836;52.268;9.008;2022-07-23T05:00:48;18.90;59.60
36916;DHT22;22836;52.268;9.008;2022-07-23T05:04:50;18.80;59.70
36916;DHT22;22836;52.268;9.008;2022-07-23T05:08:53;18.80;59.80
36916;DHT22;22836;52.268;9.008;2022-07-23T05:12:54;18.80;59.90
36916;DHT22;22836;52.268;9.008;2022-07-23T05:16:56;18.80;60.00
36916;DHT22;22836;52.268;9.008;2022-07-23T05:20:58;18.80;60.00
36916;DHT22;22836;52.268;9.008;2022-07-23T05:25:00;18.80;60.00
36916;DHT22;22836;52.268;9.008;2022-07-23T05:29:02;18.80;60.10
36916;DHT22;22836;52.268;9.008;2022-07-23T05:33:05;18.80;60.10
36916;DHT22;22836;52.268;9.008;2022-07-23T05:37:07;18.80;60.20
36916;DHT22;22836;52.268;9.008;2022-07-23T05:41:08;18.90;60.30
36916;DHT22;22836;52.268;9.008;2022-07-23T05:45:10;18.90;60.30
36916;DHT22;22836;52.268;9.008;2022-07-23T05:49:13;18.90;60.30
36916;DHT22;22836;52.268;9.008;2022-07-23T05:53:15;19.00;60.50
36916;DHT22;22836;52.268;9.008;2022-07-23T05:57:16;19.00;60.40
36916;DHT22;22836;52.268;9.008;2022-07-23T06:01:25;19.10;60.50
36916;DHT22;22836;52.268;9.008;2022-07-23T06:05:27;19.20;60.60
36916;DHT22;22836;52.268;9.008;2022-07-23T06:09:29;19.30;60.60
36916;DHT22;22836;52.268;9.008;2022-07-23T06:13:31;19.40;60.50
36916;DHT22;22836;52.268;9.008;2022-07-23T06:17:33;19.50;60.50
36916;DHT22;22836;52.268;9.008;2022-07-23T06:21:37;19.60;60.40
36916;DHT22;22836;52.268;9.008;2022-07-23T06:25:48;19.70;60.50
36916;DHT22;22836;52.268;9.008;2022-07-23T06:29:49;19.70;60.80
36916;DHT22;22836;52.268;9.008;2022-07-23T06:33:51;19.80;60.20
36916;DHT22;22836;52.268;9.008;2022-07-23T06:37:54;19.90;60.20
36916;DHT22;22836;52.268;9.008;2022-07-23T06:41:56;19.90;60.20
36916;DHT22;22836;52.268;9.008;2022-07-23T06:46:01;20.00;60.20
36916;DHT22;22836;52.268;9.008;2022-07-23T06:50:04;20.10;60.30
36916;DHT22;22836;52.268;9.008;2022-07-23T06:54:06;20.30;60.20
36916;DHT22;22836;52.268;9.008;2022-07-23T06:58:08;20.40;60.00
36916;DHT22;22836;52.268;9.008;2022-07-23T07:02:10;20.60;59.80
36916;DHT22;22836;52.268;9.008;2022-07-23T07:06:12;20.80;59.60
36916;DHT22;22836;52.268;9.008;2022-07-23T07:10:14;21.00;59.30
36916;DHT22;22836;52.268;9.008;2022-07-23T07:14:16;21.20;59.00
36916;DHT22;22836;52.268;9.008;2022-07-23T07:18:20;21.40;58.80
36916;DHT22;22836;52.268;9.008;2022-07-23T07:22:22;21.50;58.60
36916;DHT22;22836;52.268;9.008;2022-07-23T07:26:24;21.60;58.40
36916;DHT22;22836;52.268;9.008;2022-07-23T07:30:26;21.80;58.30
36916;DHT22;22836;52.268;9.008;2022-07-23T07:34:34;22.00;58.00
36916;DHT22;22836;52.268;9.008;2022-07-23T07:38:36;22.20;57.80
36916;DHT22;22836;52.268;9.008;2022-07-23T07:42:47;22.30;57.30
36916;DHT22;22836;52.268;9.008;2022-07-23T07:46:50;22.50;57.10
36916;DHT22;22836;52.268;9.008;2022-07-23T07:50:52;22.60;57.00
36916;DHT22;22836;52.268;9.008;2022-07-23T07:54:54;22.80;57.30
36916;DHT22;22836;52.268;9.008;2022-07-23T07:58:56;22.80;56.20
36916;DHT22;22836;52.268;9.008;2022-07-23T08:02:59;22.80;56.10
36916;DHT22;22836;52.268;9.008;2022-07-23T08:07:01;22.90;56.10
36916;DHT22;22836;52.268;9.008;2022-07-23T08:11:03;22.90;55.90
36916;DHT22;22836;52.268;9.008;2022-07-23T08:15:05;22.80;56.10
36916;DHT22;22836;52.268;9.008;2022-07-23T08:19:14;23.00;55.80
36916;DHT22;22836;52.268;9.008;2022-07-23T08:23:16;23.20;55.70
36916;DHT22;22836;52.268;9.008;2022-07-23T08:27:21;23.20;55.50
36916;DHT22;22836;52.268;9.008;2022-07-23T08:31:23;23.30;55.20
36916;DHT22;22836;52.268;9.008;2022-07-23T08:35:33;23.40;55.40
36916;DHT22;22836;52.268;9.008;2022-07-23T08:39:39;23.60;55.00
36916;DHT22;22836;52.268;9.008;2022-07-23T08:43:41;23.70;54.40
36916;DHT22;22836;52.268;9.008;2022-07-23T08:47:51;23.80;54.40
36916;DHT22;22836;52.268;9.008;2022-07-23T08:51:58;23.80;54.20
36916;DHT22;22836;52.268;9.008;2022-07-23T08:56:02;23.70;54.20
36916;DHT22;22836;52.268;9.008;2022-07-23T09:00:05;23.80;54.30
36916;DHT22;22836;52.268;9.008;2022-07-23T09:04:08;23.90;54.00
36916;DHT22;22836;52.268;9.008;2022-07-23T09:08:15;23.90;53.60
36916;DHT22;22836;52.268;9.008;2022-07-23T09:12:18;23.90;53.50
36916;DHT22;22836;52.268;9.008;2022-07-23T09:16:24;23.80;53.80
36916;DHT22;22836;52.268;9.008;2022-07-23T09:20:27;23.80;52.40
36916;DHT22;22836;52.268;9.008;2022-07-23T09:24:29;23.90;53.50
36916;DHT22;22836;52.268;9.008;2022-07-23T09:28:31;24.00;53.40
36916;DHT22;22836;52.268;9.008;2022-07-23T09:32:33;24.00;52.10
36916;DHT22;22836;52.268;9.008;2022-07-23T09:36:35;24.00;52.00
36916;DHT22;22836;52.268;9.008;2022-07-23T09:40:37;23.90;52.00
36916;DHT22;22836;52.268;9.008;2022-07-23T09:44:47;24.00;52.50
36916;DHT22;22836;52.268;9.008;2022-07-23T09:48:56;24.20;52.10
36916;DHT22;22836;52.268;9.008;2022-07-23T09:52:58;24.30;51.50
36916;DHT22;22836;52.268;9.008;2022-07-23T09:57:02;24.30;52.00
36916;DHT22;22836;52.268;9.008;2022-07-23T10:01:04;24.20;51.70
36916;DHT22;22836;52.268;9.008;2022-07-23T10:05:07;24.40;52.00
36916;DHT22;22836;52.268;9.008;2022-07-23T10:09:12;24.60;51.30
36916;DHT22;22836;52.268;9.008;2022-07-23T10:13:17;24.70;51.00
36916;DHT22;22836;52.268;9.008;2022-07-23T10:17:22;24.80;51.00
36916;DHT22;22836;52.268;9.008;2022-07-23T10:21:29;24.90;50.90
36916;DHT22;22836;52.268;9.008;2022-07-23T10:26:15;25.00;50.60
36916;DHT22;22836;52.268;9.008;2022-07-23T10:30:29;25.10;49.60
36916;DHT22;22836;52.268;9.008;2022-07-23T10:34:55;25.10;49.50
36916;DHT22;22836;52.268;9.008;2022-07-23T10:39:08;24.90;49.00
36916;DHT22;22836;52.268;9.008;2022-07-23T10:43:16;24.90;50.00
36916;DHT22;22836;52.268;9.008;2022-07-23T10:47:29;25.00;49.90
36916;DHT22;22836;52.268;9.008;2022-07-23T10:51:31;25.10;48.40
36916;DHT22;22836;52.268;9.008;2022-07-23T11:04:03;25.20;48.10
36916;DHT22;22836;52.268;9.008;2022-07-23T11:16:21;25.40;48.20
36916;DHT22;22836;52.268;9.008;2022-07-23T11:20:24;25.50;48.30
36916;DHT22;22836;52.268;9.008;2022-07-23T11:24:26;25.60;48.20
36916;DHT22;22836;52.268;9.008;2022-07-23T11:28:28;25.80;48.20
36916;DHT22;22836;52.268;9.008;2022-07-23T11:32:33;25.90;47.50
36916;DHT22;22836;52.268;9.008;2022-07-23T11:36:49;26.00;47.50
36916;DHT22;22836;52.268;9.008;2022-07-23T11:40:53;26.10;45.80
36916;DHT22;22836;52.268;9.008;2022-07-23T11:44:57;26.10;46.90
36916;DHT22;22836;52.268;9.008;2022-07-23T11:49:02;26.10;47.10
36916;DHT22;22836;52.268;9.008;2022-07-23T11:53:05;26.10;47.10
36916;DHT22;22836;52.268;9.008;2022-07-23T11:57:06;26.10;47.30
36916;DHT22;22836;52.268;9.008;2022-07-23T12:01:08;26.20;47.20
36916;DHT22;22836;52.268;9.008;2022-07-23T12:05:25;26.30;46.60
36916;DHT22;22836;52.268;9.008;2022-07-23T12:09:34;26.30;46.50
36916;DHT22;22836;52.268;9.008;2022-07-23T12:13:36;26.30;46.30
36916;DHT22;22836;52.268;9.008;2022-07-23T12:17:40;26.40;46.20
36916;DHT22;22836;52.268;9.008;2022-07-23T12:21:49;26.50;45.60
36916;DHT22;22836;52.268;9.008;2022-07-23T12:25:53;26.50;45.60
36916;DHT22;22836;52.268;9.008;2022-07-23T12:29:55;26.60;45.90
36916;DHT22;22836;52.268;9.008;2022-07-23T12:33:58;26.70;45.30
36916;DHT22;22836;52.268;9.008;2022-07-23T12:38:09;26.90;45.10
36916;DHT22;22836;52.268;9.008;2022-07-23T12:42:16;26.90;44.60
36916;DHT22;22836;52.268;9.008;2022-07-23T12:46:21;27.00;45.20
36916;DHT22;22836;52.268;9.008;2022-07-23T12:54:54;27.50;44.80
36916;DHT22;22836;52.268;9.008;2022-07-23T13:03:20;27.70;44.20
36916;DHT22;22836;52.268;9.008;2022-07-23T13:07:44;28.00;43.30
36916;DHT22;22836;52.268;9.008;2022-07-23T13:11:47;28.10;43.40
36916;DHT22;22836;52.268;9.008;2022-07-23T13:15:49;28.20;43.60
36916;DHT22;22836;52.268;9.008;2022-07-23T13:19:53;28.20;43.30
36916;DHT22;22836;52.268;9.008;2022-07-23T13:23:56;28.30;43.40
36916;DHT22;22836;52.268;9.008;2022-07-23T13:28:01;28.40;43.60
36916;DHT22;22836;52.268;9.008;2022-07-23T13:32:07;28.40;43.00
36916;DHT22;22836;52.268;9.008;2022-07-23T13:36:13;28.50;43.10
36916;DHT22;22836;52.268;9.008;2022-07-23T13:40:16;28.60;43.00
36916;DHT22;22836;52.268;9.008;2022-07-23T13:44:20;28.70;42.60
36916;DHT22;22836;52.268;9.008;2022-07-23T13:48:23;29.00;42.50
36916;DHT22;22836;52.268;9.008;2022-07-23T13:52:25;30.00;41.80
36916;DHT22;22836;52.268;9.008;2022-07-23T13:56:27;31.30;39.80
36916;DHT22;22836;52.268;9.008;2022-07-23T14:00:31;32.50;39.10
36916;DHT22;22836;52.268;9.008;2022-07-23T14:04:54;33.60;38.40
36916;DHT22;22836;52.268;9.008;2022-07-23T14:08:56;34.70;36.40
36916;DHT22;22836;52.268;9.008;2022-07-23T14:13:02;35.40;35.00
36916;DHT22;22836;52.268;9.008;2022-07-23T14:17:08;35.90;35.20
36916;DHT22;22836;52.268;9.008;2022-07-23T14:21:12;36.70;35.60
36916;DHT22;22836;52.268;9.008;2022-07-23T14:25:14;37.70;33.90
36916;DHT22;22836;52.268;9.008;2022-07-23T14:29:15;38.70;34.70
36916;DHT22;22836;52.268;9.008;2022-07-23T14:33:17;40.00;34.10
36916;DHT22;22836;52.268;9.008;2022-07-23T14:37:19;40.80;32.90
36916;DHT22;22836;52.268;9.008;2022-07-23T14:41:22;41.30;32.30
36916;DHT22;22836;52.268;9.008;2022-07-23T14:45:28;41.60;32.10
36916;DHT22;22836;52.268;9.008;2022-07-23T14:49:31;42.20;32.00
36916;DHT22;22836;52.268;9.008;2022-07-23T14:53:34;42.70;30.60
36916;DHT22;22836;52.268;9.008;2022-07-23T14:57:36;43.00;31.00
36916;DHT22;22836;52.268;9.008;2022-07-23T15:01:38;43.30;30.80
36916;DHT22;22836;52.268;9.008;2022-07-23T15:05:40;43.50;30.50
36916;DHT22;22836;52.268;9.008;2022-07-23T15:09:44;43.50;30.40
36916;DHT22;22836;52.268;9.008;2022-07-23T15:13:50;43.60;29.20
36916;DHT22;22836;52.268;9.008;2022-07-23T15:17:55;43.40;29.00
36916;DHT22;22836;52.268;9.008;2022-07-23T15:21:57;43.20;29.80
36916;DHT22;22836;52.268;9.008;2022-07-23T15:25:59;43.30;29.80
36916;DHT22;22836;52.268;9.008;2022-07-23T15:30:01;43.50;29.90
36916;DHT22;22836;52.268;9.008;2022-07-23T15:34:03;43.60;29.70
36916;DHT22;22836;52.268;9.008;2022-07-23T15:38:07;43.70;29.70
36916;DHT22;22836;52.268;9.008;2022-07-23T15:42:14;43.80;29.30
36916;DHT22;22836;52.268;9.008;2022-07-23T15:46:17;43.50;29.60
36916;DHT22;22836;52.268;9.008;2022-07-23T15:50:25;43.10;29.60
36916;DHT22;22836;52.268;9.008;2022-07-23T15:54:28;42.80;29.20
36916;DHT22;22836;52.268;9.008;2022-07-23T15:58:31;42.50;29.40
36916;DHT22;22836;52.268;9.008;2022-07-23T16:02:33;42.10;29.50
36916;DHT22;22836;52.268;9.008;2022-07-23T16:06:35;41.90;29.70
36916;DHT22;22836;52.268;9.008;2022-07-23T16:10:38;41.90;29.50
36916;DHT22;22836;52.268;9.008;2022-07-23T16:14:40;41.80;29.40
36916;DHT22;22836;52.268;9.008;2022-07-23T16:18:45;41.30;28.80
36916;DHT22;22836;52.268;9.008;2022-07-23T16:22:47;40.30;29.50
36916;DHT22;22836;52.268;9.008;2022-07-23T16:26:49;39.90;30.00
36916;DHT22;22836;52.268;9.008;2022-07-23T16:30:51;39.90;29.90
36916;DHT22;22836;52.268;9.008;2022-07-23T16:34:53;40.10;29.60
36916;DHT22;22836;52.268;9.008;2022-07-23T16:38:55;40.10;29.60
36916;DHT22;22836;52.268;9.008;2022-07-23T16:42:58;40.10;29.70
36916;DHT22;22836;52.268;9.008;2022-07-23T16:47:00;40.00;29.40
36916;DHT22;22836;52.268;9.008;2022-07-23T16:51:02;39.90;29.40
36916;DHT22;22836;52.268;9.008;2022-07-23T16:55:09;39.80;29.40
36916;DHT22;22836;52.268;9.008;2022-07-23T16:59:11;39.90;29.60
36916;DHT22;22836;52.268;9.008;2022-07-23T17:03:15;40.00;29.60
36916;DHT22;22836;52.268;9.008;2022-07-23T17:07:18;40.00;29.10
36916;DHT22;22836;52.268;9.008;2022-07-23T17:11:23;39.90;29.20
36916;DHT22;22836;52.268;9.008;2022-07-23T17:15:27;39.50;29.40
36916;DHT22;22836;52.268;9.008;2022-07-23T17:19:29;39.10;29.50
36916;DHT22;22836;52.268;9.008;2022-07-23T17:23:31;38.80;29.30
36916;DHT22;22836;52.268;9.008;2022-07-23T17:27:32;38.70;29.70
36916;DHT22;22836;52.268;9.008;2022-07-23T17:31:34;38.70;29.60
36916;DHT22;22836;52.268;9.008;2022-07-23T17:35:36;38.60;29.60
36916;DHT22;22836;52.268;9.008;2022-07-23T17:39:38;38.30;29.70
36916;DHT22;22836;52.268;9.008;2022-07-23T17:43:39;38.00;29.40
36916;DHT22;22836;52.268;9.008;2022-07-23T17:47:42;37.60;29.40
36916;DHT22;22836;52.268;9.008;2022-07-23T17:51:46;36.70;29.60
36916;DHT22;22836;52.268;9.008;2022-07-23T17:55:51;35.70;29.70
36916;DHT22;22836;52.268;9.008;2022-07-23T17:59:53;34.90;30.10
36916;DHT22;22836;52.268;9.008;2022-07-23T18:03:55;34.00;30.40
36916;DHT22;22836;52.268;9.008;2022-07-23T18:07:57;33.30;30.80
36916;DHT22;22836;52.268;9.008;2022-07-23T18:12:01;32.70;31.10
36916;DHT22;22836;52.268;9.008;2022-07-23T18:16:02;32.20;31.50
36916;DHT22;22836;52.268;9.008;2022-07-23T18:20:06;31.80;31.40
36916;DHT22;22836;52.268;9.008;2022-07-23T18:24:09;31.40;31.70
36916;DHT22;22836;52.268;9.008;2022-07-23T18:28:11;31.00;32.00
36916;DHT22;22836;52.268;9.008;2022-07-23T18:32:13;30.50;32.20
36916;DHT22;22836;52.268;9.008;2022-07-23T18:36:15;30.20;32.40
36916;DHT22;22836;52.268;9.008;2022-07-23T18:40:19;29.90;32.60
36916;DHT22;22836;52.268;9.008;2022-07-23T18:44:26;29.60;32.80
36916;DHT22;22836;52.268;9.008;2022-07-23T18:48:28;29.30;33.00
36916;DHT22;22836;52.268;9.008;2022-07-23T18:52:31;29.10;33.20
36916;DHT22;22836;52.268;9.008;2022-07-23T18:56:37;28.90;33.40
36916;DHT22;22836;52.268;9.008;2022-07-23T19:00:41;28.70;33.60
36916;DHT22;22836;52.268;9.008;2022-07-23T19:04:43;28.50;33.60
36916;DHT22;22836;52.268;9.008;2022-07-23T19:08:45;28.30;33.80
36916;DHT22;22836;52.268;9.008;2022-07-23T19:12:47;28.10;34.00
36916;DHT22;22836;52.268;9.008;2022-07-23T19:16:50;27.90;34.20
36916;DHT22;22836;52.268;9.008;2022-07-23T19:20:52;27.80;34.30
36916;DHT22;22836;52.268;9.008;2022-07-23T19:24:54;27.60;34.50
36916;DHT22;22836;52.268;9.008;2022-07-23T19:28:56;27.40;34.60
36916;DHT22;22836;52.268;9.008;2022-07-23T19:32:57;27.30;34.90
36916;DHT22;22836;52.268;9.008;2022-07-23T19:37:04;27.20;35.20
36916;DHT22;22836;52.268;9.008;2022-07-23T19:41:08;27.10;35.50
36916;DHT22;22836;52.268;9.008;2022-07-23T19:45:10;27.00;35.70
36916;DHT22;22836;52.268;9.008;2022-07-23T19:49:15;26.90;35.80
36916;DHT22;22836;52.268;9.008;2022-07-23T19:53:20;26.70;35.90
36916;DHT22;22836;52.268;9.008;2022-07-23T19:57:22;26.60;36.10
36916;DHT22;22836;52.268;9.008;2022-07-23T20:01:24;26.50;36.30
36916;DHT22;22836;52.268;9.008;2022-07-23T20:05:26;26.40;36.50
36916;DHT22;22836;52.268;9.008;2022-07-23T20:09:28;26.20;36.60
36916;DHT22;22836;52.268;9.008;2022-07-23T20:13:30;26.00;36.70
36916;DHT22;22836;52.268;9.008;2022-07-23T20:17:34;25.90;36.90
36916;DHT22;22836;52.268;9.008;2022-07-23T20:21:36;25.70;37.20
36916;DHT22;22836;52.268;9.008;2022-07-23T20:25:38;25.60;37.70
36916;DHT22;22836;52.268;9.008;2022-07-23T20:29:40;25.50;37.30
36916;DHT22;22836;52.268;9.008;2022-07-23T20:33:45;25.40;37.50
36916;DHT22;22836;52.268;9.008;2022-07-23T20:37:47;25.30;37.70
36916;DHT22;22836;52.268;9.008;2022-07-23T20:41:52;25.10;37.80
36916;DHT22;22836;52.268;9.008;2022-07-23T20:45:57;24.90;38.00
36916;DHT22;22836;52.268;9.008;2022-07-23T20:49:59;24.90;38.20
36916;DHT22;22836;52.268;9.008;2022-07-23T20:54:02;24.80;38.40
36916;DHT22;22836;52.268;9.008;2022-07-23T20:58:05;24.60;38.90
36916;DHT22;22836;52.268;9.008;2022-07-23T21:02:07;24.50;38.40
36916;DHT22;22836;52.268;9.008;2022-07-23T21:06:08;24.40;38.70
36916;DHT22;22836;52.268;9.008;2022-07-23T21:10:12;24.30;38.90
36916;DHT22;22836;52.268;9.008;2022-07-23T21:14:14;24.20;39.20
36916;DHT22;22836;52.268;9.008;2022-07-23T21:18:16;24.10;39.30
36916;DHT22;22836;52.268;9.008;2022-07-23T21:22:18;24.00;39.50
36916;DHT22;22836;52.268;9.008;2022-07-23T21:26:21;23.90;39.70
36916;DHT22;22836;52.268;9.008;2022-07-23T21:30:32;23.80;39.80
36916;DHT22;22836;52.268;9.008;2022-07-23T21:34:37;23.70;39.90
36916;DHT22;22836;52.268;9.008;2022-07-23T21:38:50;23.60;40.20
36916;DHT22;22836;52.268;9.008;2022-07-23T21:43:35;23.50;40.20
36916;DHT22;22836;52.268;9.008;2022-07-23T21:47:45;23.30;41.00
36916;DHT22;22836;52.268;9.008;2022-07-23T21:51:55;23.30;40.60
36916;DHT22;22836;52.268;9.008;2022-07-23T21:56:05;23.10;40.70
36916;DHT22;22836;52.268;9.008;2022-07-23T22:00:21;23.10;40.70
36916;DHT22;22836;52.268;9.008;2022-07-23T22:04:28;22.90;41.40
36916;DHT22;22836;52.268;9.008;2022-07-23T22:08:44;22.80;40.80
36916;DHT22;22836;52.268;9.008;2022-07-23T22:12:59;22.70;41.10
36916;DHT22;22836;52.268;9.008;2022-07-23T22:17:11;22.70;41.30
36916;DHT22;22836;52.268;9.008;2022-07-23T22:21:16;22.50;41.20
36916;DHT22;22836;52.268;9.008;2022-07-23T22:25:40;22.40;41.30
36916;DHT22;22836;52.268;9.008;2022-07-23T22:29:42;22.30;41.50
36916;DHT22;22836;52.268;9.008;2022-07-23T22:33:44;22.30;41.70
36916;DHT22;22836;52.268;9.008;2022-07-23T22:37:46;22.20;41.90
36916;DHT22;22836;52.268;9.008;2022-07-23T22:41:48;22.00;41.90
36916;DHT22;22836;52.268;9.008;2022-07-23T22:45:58;22.00;42.10
36916;DHT22;22836;52.268;9.008;2022-07-23T22:50:29;21.90;42.50
36916;DHT22;22836;52.268;9.008;2022-07-23T22:54:43;21.80;43.00
36916;DHT22;22836;52.268;9.008;2022-07-23T22:58:45;21.70;42.40
36916;DHT22;22836;52.268;9.008;2022-07-23T23:02:51;21.60;42.50
36916;DHT22;22836;52.268;9.008;2022-07-23T23:06:53;21.50;42.60
36916;DHT22;22836;52.268;9.008;2022-07-23T23:10:56;21.40;42.80
36916;DHT22;22836;52.268;9.008;2022-07-23T23:14:57;21.40;42.90
36916;DHT22;22836;52.268;9.008;2022-07-23T23:18:59;21.30;43.00
36916;DHT22;22836;52.268;9.008;2022-07-23T23:23:02;21.30;43.10
36916;DHT22;22836;52.268;9.008;2022-07-23T23:27:04;21.20;43.10
36916;DHT22;22836;52.268;9.008;2022-07-23T23:31:06;21.20;43.30
36916;DHT22;22836;52.268;9.008;2022-07-23T23:35:08;21.10;43.40
36916;DHT22;22836;52.268;9.008;2022-07-23T23:39:10;21.00;43.50
36916;DHT22;22836;52.268;9.008;2022-07-23T23:43:12;20.90;43.60
36916;DHT22;22836;52.268;9.008;2022-07-23T23:47:14;20.90;43.70
36916;DHT22;22836;52.268;9.008;2022-07-23T23:51:16;20.80;43.80
36916;DHT22;22836;52.268;9.008;2022-07-23T23:55:18;20.80;43.90
36916;DHT22;22836;52.268;9.008;2022-07-23T23:59:20;20.70;43.90
